createdAt,value
2019-05-28T00:02:06.731Z,13.90
2019-05-28T00:04:33.296Z,13.90
2019-05-28T00:06:59.865Z,13.90
2019-05-28T00:09:26.556Z,13.90
2019-05-28T00:11:53.220Z,13.90
2019-05-28T00:14:19.795Z,13.90
2019-05-28T00:16:46.521Z,13.90
2019-05-28T00:19:13.102Z,13.90
2019-05-28T00:21:39.665Z,13.90
2019-05-28T00:24:06.246Z,13.80
2019-05-28T00:26:32.819Z,13.80
2019-05-28T00:28:59.404Z,13.80
2019-05-28T00:31:26.029Z,13.80
2019-05-28T00:33:52.618Z,13.80
2019-05-28T00:36:19.179Z,13.80
2019-05-28T00:38:45.861Z,13.80
2019-05-28T00:41:12.424Z,13.80
2019-05-28T00:43:39.003Z,13.70
2019-05-28T00:46:05.670Z,13.60
2019-05-28T00:48:32.262Z,13.60
2019-05-28T00:50:58.812Z,13.50
2019-05-28T00:53:25.403Z,13.40
2019-05-28T00:55:53.392Z,13.30
2019-05-28T00:58:20.281Z,13.20
2019-05-28T01:00:49.263Z,13.20
2019-05-28T01:03:16.121Z,13.10
2019-05-28T01:05:42.795Z,13.10
2019-05-28T01:08:09.356Z,13.10
2019-05-28T01:10:35.930Z,13.00
2019-05-28T01:13:04.095Z,13.10
2019-05-28T01:15:31.046Z,13.00
2019-05-28T01:17:57.603Z,13.00
2019-05-28T01:20:24.180Z,13.00
2019-05-28T01:22:50.834Z,13.00
2019-05-28T01:25:17.413Z,13.00
2019-05-28T01:27:44.000Z,13.00
2019-05-28T01:30:10.880Z,12.90
2019-05-28T01:32:37.451Z,13.00
2019-05-28T01:35:05.532Z,13.00
2019-05-28T01:37:32.128Z,13.00
2019-05-28T01:39:58.707Z,13.00
2019-05-28T01:42:25.358Z,13.10
2019-05-28T01:44:51.928Z,13.10
2019-05-28T01:47:18.554Z,13.10
2019-05-28T01:49:45.131Z,13.10
2019-05-28T01:52:11.728Z,13.10
2019-05-28T01:54:38.293Z,13.00
2019-05-28T01:57:04.855Z,13.00
2019-05-28T01:59:31.435Z,13.00
2019-05-28T02:01:58.001Z,12.90
2019-05-28T02:04:24.594Z,12.90
2019-05-28T02:06:51.301Z,12.90
2019-05-28T02:09:17.919Z,12.80
2019-05-28T02:11:44.479Z,12.80
2019-05-28T02:14:11.063Z,12.70
2019-05-28T02:16:37.624Z,12.70
2019-05-28T02:19:04.264Z,12.60
2019-05-28T02:21:30.849Z,12.60
2019-05-28T02:23:57.488Z,12.40
2019-05-28T02:26:24.059Z,12.40
2019-05-28T02:28:50.664Z,12.30
2019-05-28T02:31:27.458Z,12.30
2019-05-28T02:33:45.849Z,12.30
2019-05-28T02:36:12.438Z,12.20
2019-05-28T02:38:39.004Z,12.20
2019-05-28T02:41:05.582Z,12.20
2019-05-28T02:43:32.229Z,12.10
2019-05-28T02:45:58.843Z,12.10
2019-05-28T02:48:25.356Z,12.00
2019-05-28T02:50:56.436Z,12.00
2019-05-28T02:53:23.505Z,11.90
2019-05-28T02:55:51.193Z,11.90
2019-05-28T02:58:18.285Z,11.90
2019-05-28T03:00:47.534Z,11.80
2019-05-28T03:03:14.389Z,11.80
2019-05-28T03:05:41.871Z,11.80
2019-05-28T03:08:10.436Z,11.80
2019-05-28T03:11:01.721Z,11.70
2019-05-28T03:13:06.483Z,11.80
2019-05-28T03:15:37.779Z,11.80
2019-05-28T03:18:07.953Z,11.70
2019-05-28T03:20:35.745Z,11.80
2019-05-28T03:23:02.987Z,11.80
2019-05-28T03:25:31.454Z,11.80
2019-05-28T03:27:58.031Z,11.80
2019-05-28T03:30:24.643Z,11.80
2019-05-28T03:32:51.199Z,11.80
2019-05-28T03:35:18.090Z,11.80
2019-05-28T03:37:45.760Z,11.70
2019-05-28T03:40:16.664Z,11.60
2019-05-28T03:42:43.233Z,11.60
2019-05-28T03:45:10.011Z,11.50
2019-05-28T03:47:36.596Z,11.50
2019-05-28T03:50:05.757Z,11.50
2019-05-28T03:52:32.360Z,11.50
2019-05-28T03:54:59.009Z,11.40
2019-05-28T03:57:25.582Z,11.30
2019-05-28T03:59:52.147Z,11.20
2019-05-28T04:02:23.663Z,11.10
2019-05-28T04:04:47.204Z,11.10
2019-05-28T04:07:13.801Z,11.10
2019-05-28T04:09:40.365Z,11.10
2019-05-28T04:12:06.942Z,11.10
2019-05-28T04:14:33.513Z,11.20
2019-05-28T04:17:00.076Z,11.20
2019-05-28T04:19:26.678Z,11.20
2019-05-28T04:21:53.349Z,11.30
2019-05-28T04:24:19.915Z,11.30
2019-05-28T04:26:46.497Z,11.30
2019-05-28T04:29:13.070Z,11.30
2019-05-28T04:31:39.661Z,11.40
2019-05-28T04:34:06.233Z,11.40
2019-05-28T04:36:32.805Z,11.40
2019-05-28T04:38:59.369Z,11.40
2019-05-28T04:41:25.949Z,11.50
2019-05-28T04:43:52.508Z,11.50
2019-05-28T04:46:19.138Z,11.60
2019-05-28T04:48:45.742Z,11.60
2019-05-28T04:51:12.305Z,11.60
2019-05-28T04:53:38.881Z,11.70
2019-05-28T04:56:05.568Z,11.70
2019-05-28T04:58:32.139Z,11.70
2019-05-28T05:00:58.710Z,11.70
2019-05-28T05:03:25.297Z,11.70
2019-05-28T05:05:51.870Z,11.70
2019-05-28T05:08:18.552Z,11.70
2019-05-28T05:10:45.114Z,11.70
2019-05-28T05:13:11.751Z,11.70
2019-05-28T05:15:38.335Z,11.70
2019-05-28T05:18:04.916Z,11.70
2019-05-28T05:20:31.471Z,11.70
2019-05-28T05:22:58.066Z,11.70
2019-05-28T05:25:24.636Z,11.70
2019-05-28T05:27:51.210Z,11.70
2019-05-28T05:30:17.880Z,11.70
2019-05-28T05:32:44.508Z,11.80
2019-05-28T05:35:11.839Z,11.80
2019-05-28T05:37:38.414Z,11.80
2019-05-28T05:40:05.581Z,11.80
2019-05-28T05:42:32.587Z,11.80
2019-05-28T05:44:59.151Z,11.80
2019-05-28T05:47:25.733Z,11.70
2019-05-28T05:49:52.369Z,11.70
2019-05-28T05:52:18.977Z,11.70
2019-05-28T05:54:45.617Z,11.80
2019-05-28T05:57:12.176Z,11.80
2019-05-28T05:59:38.803Z,11.80
2019-05-28T06:02:05.362Z,11.80
2019-05-28T06:04:31.998Z,11.90
2019-05-28T06:06:58.552Z,11.90
2019-05-28T06:09:25.143Z,11.90
2019-05-28T06:11:51.714Z,11.90
2019-05-28T06:14:18.294Z,11.90
2019-05-28T06:16:45.221Z,11.90
2019-05-28T06:19:11.935Z,12.00
2019-05-28T06:21:38.488Z,12.00
2019-05-28T06:24:05.084Z,12.00
2019-05-28T06:26:31.745Z,11.90
2019-05-28T06:28:58.322Z,11.90
2019-05-28T06:31:24.889Z,11.90
2019-05-28T06:33:56.834Z,11.90
2019-05-28T06:36:20.092Z,11.90
2019-05-28T06:38:46.668Z,11.90
2019-05-28T06:41:13.236Z,11.90
2019-05-28T06:43:39.803Z,11.90
2019-05-28T06:46:06.369Z,12.00
2019-05-28T06:48:32.950Z,12.10
2019-05-28T06:50:59.528Z,12.20
2019-05-28T06:53:26.092Z,12.30
2019-05-28T06:55:52.649Z,12.50
2019-05-28T06:58:35.696Z,12.60
2019-05-28T07:00:48.869Z,12.70
2019-05-28T07:03:15.491Z,12.80
2019-05-28T07:05:42.151Z,12.90
2019-05-28T07:08:09.106Z,12.90
2019-05-28T07:10:35.681Z,12.90
2019-05-28T07:13:02.239Z,13.00
2019-05-28T07:15:29.825Z,12.90
2019-05-28T07:17:59.533Z,12.90
2019-05-28T07:20:24.976Z,12.80
2019-05-28T07:22:51.613Z,12.80
2019-05-28T07:25:18.235Z,12.80
2019-05-28T07:27:44.849Z,12.70
2019-05-28T07:30:12.148Z,12.70
2019-05-28T07:32:38.836Z,12.70
2019-05-28T07:35:05.923Z,12.60
2019-05-28T07:37:32.614Z,12.60
2019-05-28T07:39:59.176Z,12.60
2019-05-28T07:42:32.646Z,12.60
2019-05-28T07:44:54.203Z,12.70
2019-05-28T07:47:20.768Z,12.70
2019-05-28T07:49:47.353Z,12.70
2019-05-28T07:52:13.927Z,12.80
2019-05-28T07:54:40.512Z,12.90
2019-05-28T07:57:07.181Z,12.90
2019-05-28T07:59:33.766Z,12.90
2019-05-28T08:02:00.346Z,12.80
2019-05-28T08:04:26.978Z,12.80
2019-05-28T08:06:56.663Z,12.70
2019-05-28T08:09:23.246Z,12.70
2019-05-28T08:11:49.811Z,12.70
2019-05-28T08:14:16.393Z,12.60
2019-05-28T08:16:52.186Z,12.60
2019-05-28T08:19:11.565Z,12.60
2019-05-28T08:21:38.150Z,12.50
2019-05-28T08:24:10.679Z,12.50
2019-05-28T08:26:37.258Z,12.40
2019-05-28T08:29:03.820Z,12.40
2019-05-28T08:31:30.401Z,12.20
2019-05-28T08:33:57.051Z,12.20
2019-05-28T08:36:23.668Z,12.20
2019-05-28T08:38:50.240Z,12.20
2019-05-28T08:41:16.827Z,12.20
2019-05-28T08:43:43.493Z,12.20
2019-05-28T08:46:10.082Z,12.20
2019-05-28T08:48:36.693Z,12.10
2019-05-28T08:51:03.292Z,12.10
2019-05-28T08:53:29.882Z,12.20
2019-05-28T08:55:56.431Z,12.20
2019-05-28T08:58:22.997Z,12.20
2019-05-28T09:00:49.584Z,12.30
2019-05-28T09:03:16.149Z,12.30
2019-05-28T09:05:45.372Z,12.40
2019-05-28T09:08:11.981Z,12.40
2019-05-28T09:10:38.669Z,12.50
2019-05-28T09:13:05.224Z,12.60
2019-05-28T09:15:32.207Z,12.60
2019-05-28T09:17:58.872Z,12.60
2019-05-28T09:20:25.494Z,12.60
2019-05-28T09:22:52.450Z,12.70
2019-05-28T09:25:19.446Z,12.70
2019-05-28T09:27:46.013Z,12.80
2019-05-28T09:30:13.360Z,12.80
2019-05-28T09:32:39.975Z,12.80
2019-05-28T09:35:07.526Z,12.90
2019-05-28T09:37:34.218Z,12.90
2019-05-28T09:40:00.792Z,13.00
2019-05-28T09:42:27.429Z,12.90
2019-05-28T09:44:53.993Z,12.90
2019-05-28T09:47:21.576Z,12.90
2019-05-28T09:49:48.154Z,12.90
2019-05-28T09:52:14.730Z,12.90
2019-05-28T09:54:41.318Z,12.90
2019-05-28T09:57:07.891Z,13.00
2019-05-28T09:59:41.526Z,13.00
2019-05-28T10:02:03.332Z,13.10
2019-05-28T10:04:45.453Z,13.30
2019-05-28T10:06:58.411Z,13.40
2019-05-28T10:09:25.287Z,13.40
2019-05-28T10:11:51.851Z,13.40
2019-05-28T10:14:18.539Z,13.30
2019-05-28T10:16:45.109Z,13.30
2019-05-28T10:19:11.675Z,13.40
2019-05-28T10:21:38.258Z,13.40
2019-05-28T10:24:04.821Z,13.40
2019-05-28T10:26:31.474Z,13.50
2019-05-28T10:28:58.082Z,13.50
2019-05-28T10:31:24.664Z,13.50
2019-05-28T10:33:51.235Z,13.70
2019-05-28T10:36:34.331Z,13.90
2019-05-28T10:38:46.402Z,14.10
2019-05-28T10:41:12.972Z,14.40
2019-05-28T10:43:39.557Z,14.40
2019-05-28T10:46:07.047Z,14.50
2019-05-28T10:48:34.130Z,14.60
2019-05-28T10:51:00.698Z,14.50
2019-05-28T10:53:27.353Z,14.40
2019-05-28T10:55:53.914Z,14.40
2019-05-28T10:58:20.508Z,14.40
2019-05-28T11:00:47.133Z,14.50
2019-05-28T11:03:13.705Z,14.40
2019-05-28T11:05:40.267Z,14.30
2019-05-28T11:08:06.862Z,14.30
2019-05-28T11:10:33.432Z,14.40
2019-05-28T11:13:00.015Z,14.40
2019-05-28T11:15:27.382Z,14.40
2019-05-28T11:17:53.950Z,14.40
2019-05-28T11:20:21.356Z,14.40
2019-05-28T11:22:47.922Z,14.50
2019-05-28T11:25:15.217Z,14.70
2019-05-28T11:27:41.901Z,14.80
2019-05-28T11:30:11.863Z,15.00
2019-05-28T11:32:38.550Z,15.10
2019-05-28T11:35:06.214Z,15.30
2019-05-28T11:37:32.914Z,15.50
2019-05-28T11:39:59.480Z,15.50
2019-05-28T11:42:26.047Z,15.60
2019-05-28T11:44:52.615Z,15.70
2019-05-28T11:47:19.183Z,15.90
2019-05-28T11:49:45.841Z,16.10
2019-05-28T11:52:12.428Z,16.20
2019-05-28T11:54:39.006Z,16.30
2019-05-28T11:57:05.633Z,16.40
2019-05-28T11:59:32.302Z,16.40
2019-05-28T12:01:58.860Z,16.40
2019-05-28T12:04:25.438Z,16.50
2019-05-28T12:06:52.010Z,16.70
2019-05-28T12:09:18.599Z,16.80
2019-05-28T12:11:45.161Z,16.90
2019-05-28T12:14:11.825Z,16.90
2019-05-28T12:16:38.379Z,16.80
2019-05-28T12:19:04.957Z,16.60
2019-05-28T12:21:31.583Z,16.60
2019-05-28T12:23:58.155Z,16.80
2019-05-28T12:26:24.726Z,17.10
2019-05-28T12:28:51.313Z,17.20
2019-05-28T12:31:17.904Z,17.10
2019-05-28T12:33:44.493Z,16.90
2019-05-28T12:36:11.151Z,16.80
2019-05-28T12:38:37.777Z,16.80
2019-05-28T12:41:04.382Z,16.90
2019-05-28T12:43:31.115Z,16.80
2019-05-28T12:45:57.711Z,16.70
2019-05-28T12:48:24.301Z,16.70
2019-05-28T12:50:50.958Z,16.60
2019-05-28T12:53:17.515Z,16.60
2019-05-28T12:55:44.094Z,16.50
2019-05-28T12:58:10.696Z,16.50
2019-05-28T13:00:37.681Z,16.50
2019-05-28T13:03:04.348Z,16.50
2019-05-28T13:05:31.330Z,16.50
2019-05-28T13:08:08.734Z,16.50
2019-05-28T13:10:26.391Z,16.50
2019-05-28T13:12:52.972Z,16.50
2019-05-28T13:15:20.168Z,16.50
2019-05-28T13:17:46.820Z,16.60
2019-05-28T13:20:15.304Z,16.60
2019-05-28T13:22:42.118Z,16.50
2019-05-28T13:25:09.207Z,16.50
2019-05-28T13:27:35.882Z,16.40
2019-05-28T13:30:07.561Z,16.30
2019-05-28T13:32:34.248Z,16.40
2019-05-28T13:35:01.184Z,16.50
2019-05-28T13:37:28.013Z,16.50
2019-05-28T13:39:54.911Z,16.50
2019-05-28T13:42:21.626Z,16.60
2019-05-28T13:44:48.244Z,16.60
2019-05-28T13:47:32.501Z,16.70
2019-05-28T13:49:43.310Z,16.80
2019-05-28T13:52:12.354Z,16.90
2019-05-28T13:54:38.348Z,17.10
2019-05-28T13:57:04.935Z,17.10
2019-05-28T13:59:31.517Z,17.10
2019-05-28T14:01:58.154Z,17.20
2019-05-28T14:04:24.708Z,17.10
2019-05-28T14:06:51.292Z,16.90
2019-05-28T14:09:17.869Z,16.80
2019-05-28T14:11:44.555Z,16.70
2019-05-28T14:14:11.157Z,16.60
2019-05-28T14:16:37.846Z,16.40
2019-05-28T14:19:04.406Z,16.30
2019-05-28T14:21:30.989Z,16.30
2019-05-28T14:23:57.552Z,16.50
2019-05-28T14:26:24.222Z,16.60
2019-05-28T14:28:53.671Z,16.60
2019-05-28T14:31:19.331Z,16.50
2019-05-28T14:33:45.907Z,16.60
2019-05-28T14:36:12.511Z,16.60
2019-05-28T14:38:39.068Z,16.60
2019-05-28T14:41:06.121Z,16.60
2019-05-28T14:43:32.872Z,16.60
2019-05-28T14:45:59.535Z,16.50
2019-05-28T14:48:26.107Z,16.60
2019-05-28T14:50:52.751Z,16.50
2019-05-28T14:53:19.309Z,16.30
2019-05-28T14:55:45.893Z,16.20
2019-05-28T14:58:13.683Z,16.10
2019-05-28T15:00:40.858Z,16.00
2019-05-28T15:03:07.422Z,15.80
2019-05-28T15:05:34.058Z,15.70
2019-05-28T15:08:01.695Z,15.50
2019-05-28T15:10:28.248Z,15.40
2019-05-28T15:12:54.968Z,15.20
2019-05-28T15:15:35.315Z,14.90
2019-05-28T15:17:50.011Z,14.70
2019-05-28T15:20:17.289Z,14.50
2019-05-28T15:22:43.867Z,14.50
2019-05-28T15:25:10.816Z,14.60
2019-05-28T15:27:37.448Z,14.80
2019-05-28T15:30:06.286Z,14.90
2019-05-28T15:32:32.872Z,15.10
2019-05-28T15:34:59.497Z,15.20
2019-05-28T15:37:27.134Z,15.20
2019-05-28T15:39:53.760Z,15.20
2019-05-28T15:42:20.862Z,15.20
2019-05-28T15:44:47.551Z,15.20
2019-05-28T15:47:14.231Z,15.20
2019-05-28T15:49:40.796Z,15.10
2019-05-28T15:52:08.171Z,15.00
2019-05-28T15:54:34.914Z,15.10
2019-05-28T15:57:01.629Z,15.10
2019-05-28T15:59:28.186Z,15.10
2019-05-28T16:01:54.763Z,15.00
2019-05-28T16:04:22.443Z,15.10
2019-05-28T16:06:49.025Z,15.10
2019-05-28T16:09:15.615Z,15.10
2019-05-28T16:11:42.208Z,15.20
2019-05-28T16:14:08.843Z,15.20
2019-05-28T16:16:35.526Z,15.10
2019-05-28T16:19:03.636Z,15.10
2019-05-28T16:21:30.214Z,15.10
2019-05-28T16:23:56.777Z,15.00
2019-05-28T16:26:23.447Z,15.00
2019-05-28T16:28:50.186Z,15.10
2019-05-28T16:31:16.762Z,15.20
2019-05-28T16:33:43.352Z,15.30
2019-05-28T16:36:09.937Z,15.40
2019-05-28T16:38:36.538Z,15.30
2019-05-28T16:41:03.212Z,15.30
2019-05-28T16:43:29.845Z,15.20
2019-05-28T16:45:56.416Z,15.20
2019-05-28T16:48:22.992Z,15.20
2019-05-28T16:50:49.616Z,15.10
2019-05-28T16:53:16.394Z,15.10
2019-05-28T16:55:42.992Z,15.10
2019-05-28T16:58:09.700Z,15.00
2019-05-28T17:00:36.264Z,14.90
2019-05-28T17:03:03.250Z,14.90
2019-05-28T17:05:29.883Z,14.90
2019-05-28T17:07:56.501Z,14.80
2019-05-28T17:10:32.897Z,14.90
2019-05-28T17:12:51.578Z,14.80
2019-05-28T17:15:18.779Z,14.80
2019-05-28T17:17:46.237Z,14.80
2019-05-28T17:20:13.819Z,14.70
2019-05-28T17:22:40.382Z,14.60
2019-05-28T17:25:11.719Z,14.50
2019-05-28T17:27:38.207Z,14.40
2019-05-28T17:30:18.828Z,14.40
2019-05-28T17:32:35.061Z,14.30
2019-05-28T17:35:03.132Z,14.30
2019-05-28T17:37:29.709Z,14.40
2019-05-28T17:39:56.679Z,14.60
2019-05-28T17:42:23.349Z,14.80
2019-05-28T17:44:49.940Z,15.00
2019-05-28T17:47:16.524Z,15.10
2019-05-28T17:49:43.169Z,15.20
2019-05-28T17:52:09.800Z,15.20
2019-05-28T17:54:36.410Z,15.20
2019-05-28T17:57:03.982Z,15.10
2019-05-28T17:59:30.554Z,15.00
2019-05-28T18:01:57.178Z,15.00
2019-05-28T18:04:23.819Z,14.90
2019-05-28T18:06:50.396Z,14.80
2019-05-28T18:09:17.037Z,14.70
2019-05-28T18:11:43.645Z,14.60
2019-05-28T18:14:10.215Z,14.50
2019-05-28T18:16:36.891Z,14.40
2019-05-28T18:19:03.502Z,14.20
2019-05-28T18:21:31.171Z,14.10
2019-05-28T18:23:57.758Z,14.00
2019-05-28T18:26:24.327Z,13.80
2019-05-28T18:28:50.964Z,13.80
2019-05-28T18:31:17.616Z,13.80
2019-05-28T18:33:44.237Z,13.70
2019-05-28T18:36:10.893Z,13.60
2019-05-28T18:38:43.447Z,13.50
2019-05-28T18:41:20.664Z,13.40
2019-05-28T18:43:34.439Z,13.30
2019-05-28T18:46:01.022Z,13.20
2019-05-28T18:48:27.697Z,13.10
2019-05-28T18:50:54.263Z,13.10
2019-05-28T18:53:20.853Z,13.00
2019-05-28T18:55:47.421Z,13.00
2019-05-28T18:58:14.146Z,12.90
2019-05-28T19:00:41.868Z,12.90
2019-05-28T19:03:08.449Z,12.90
2019-05-28T19:05:35.049Z,12.80
2019-05-28T19:08:01.654Z,12.80
2019-05-28T19:10:28.388Z,12.90
2019-05-28T19:12:58.138Z,12.80
2019-05-28T19:15:24.562Z,12.80
2019-05-28T19:17:51.167Z,12.80
2019-05-28T19:20:18.139Z,12.80
2019-05-28T19:22:44.715Z,12.70
2019-05-28T19:25:12.491Z,12.70
2019-05-28T19:27:39.069Z,12.70
2019-05-28T19:30:08.965Z,12.70
2019-05-28T19:32:35.746Z,12.80
2019-05-28T19:35:07.835Z,12.80
2019-05-28T19:37:34.522Z,12.70
2019-05-28T19:40:05.721Z,12.70
2019-05-28T19:42:32.258Z,12.60
2019-05-28T19:44:58.823Z,12.60
2019-05-28T19:47:25.507Z,12.50
2019-05-28T19:49:52.036Z,12.50
2019-05-28T19:52:18.659Z,12.40
2019-05-28T19:54:45.205Z,12.30
2019-05-28T19:57:11.765Z,12.30
2019-05-28T19:59:38.362Z,12.20
2019-05-28T20:02:04.881Z,12.20
2019-05-28T20:04:32.429Z,12.10
2019-05-28T20:06:58.966Z,12.10
2019-05-28T20:09:25.626Z,12.00
2019-05-28T20:12:00.700Z,12.00
2019-05-28T20:14:20.582Z,11.90
2019-05-28T20:16:47.125Z,11.90
2019-05-28T20:19:13.683Z,11.80
2019-05-28T20:21:40.204Z,11.80
2019-05-28T20:24:06.765Z,11.70
2019-05-28T20:26:33.298Z,11.60
2019-05-28T20:29:08.552Z,11.60
2019-05-28T20:31:28.373Z,11.50
2019-05-28T20:33:54.914Z,11.50
2019-05-28T20:36:21.554Z,11.40
2019-05-28T20:38:48.097Z,11.40
2019-05-28T20:41:14.724Z,11.40
2019-05-28T20:43:41.283Z,11.40
2019-05-28T20:46:08.627Z,11.40
2019-05-28T20:48:35.150Z,11.40
2019-05-28T20:51:10.725Z,11.30
2019-05-28T20:53:35.923Z,11.30
2019-05-28T20:56:01.421Z,11.30
2019-05-28T20:58:39.810Z,11.30
2019-05-28T21:00:57.777Z,11.30
2019-05-28T21:03:24.432Z,11.30
2019-05-28T21:05:50.985Z,11.30
2019-05-28T21:08:17.503Z,11.30
2019-05-28T21:10:44.041Z,11.20
2019-05-28T21:13:10.567Z,11.20
2019-05-28T21:15:37.107Z,11.20
2019-05-28T21:18:03.635Z,11.20
2019-05-28T21:20:30.197Z,11.20
2019-05-28T21:22:57.964Z,11.20
2019-05-28T21:25:24.714Z,11.20
2019-05-28T21:27:52.218Z,11.20
2019-05-28T21:30:19.305Z,11.20
2019-05-28T21:32:45.854Z,11.20
2019-05-28T21:35:12.743Z,11.20
2019-05-28T21:37:39.278Z,11.20
2019-05-28T21:40:06.948Z,11.30
2019-05-28T21:42:34.492Z,11.30
2019-05-28T21:45:02.521Z,11.30
2019-05-28T21:47:29.425Z,11.30
2019-05-28T21:49:58.978Z,11.30
2019-05-28T21:52:24.460Z,11.30
2019-05-28T21:54:50.984Z,11.30
2019-05-28T21:57:17.554Z,11.30
2019-05-28T21:59:44.130Z,11.30
2019-05-28T22:02:11.585Z,11.30
2019-05-28T22:04:38.103Z,11.30
2019-05-28T22:07:04.671Z,11.30
2019-05-28T22:09:31.190Z,11.30
2019-05-28T22:11:57.848Z,11.30
2019-05-28T22:14:24.396Z,11.30
2019-05-28T22:16:51.063Z,11.30
2019-05-28T22:19:17.682Z,11.30
2019-05-28T22:21:44.304Z,11.30
2019-05-28T22:24:11.027Z,11.30
2019-05-28T22:26:37.619Z,11.30
2019-05-28T22:29:04.153Z,11.30
2019-05-28T22:31:30.787Z,11.40
2019-05-28T22:33:57.327Z,11.40
2019-05-28T22:36:23.910Z,11.40
2019-05-28T22:39:09.292Z,11.40
2019-05-28T22:41:40.111Z,11.40
2019-05-28T22:44:07.781Z,11.40
2019-05-28T22:46:34.421Z,11.40
2019-05-28T22:49:01.222Z,11.40
2019-05-28T22:51:27.781Z,11.40
2019-05-28T22:53:54.305Z,11.40
2019-05-28T22:56:20.843Z,11.30
2019-05-28T22:58:47.364Z,11.30
2019-05-28T23:01:13.911Z,11.20
2019-05-28T23:03:40.452Z,11.20
2019-05-28T23:06:07.345Z,11.20
2019-05-28T23:08:33.924Z,11.10
2019-05-28T23:11:02.530Z,11.10
2019-05-28T23:13:28.958Z,11.10
2019-05-28T23:15:55.522Z,11.10
2019-05-28T23:18:22.069Z,11.10
2019-05-28T23:20:48.635Z,11.10
2019-05-28T23:23:15.166Z,11.10
2019-05-28T23:25:41.694Z,11.10
2019-05-28T23:28:08.227Z,11.10
2019-05-28T23:30:34.757Z,11.10
2019-05-28T23:33:02.308Z,11.10
2019-05-28T23:35:28.989Z,11.10
2019-05-28T23:37:55.522Z,11.10
2019-05-28T23:40:22.154Z,11.10
2019-05-28T23:42:48.791Z,11.10
2019-05-28T23:45:15.415Z,11.10
2019-05-28T23:47:41.956Z,11.10
2019-05-28T23:50:13.011Z,11.00
2019-05-28T23:52:37.530Z,11.00
2019-05-28T23:55:06.276Z,11.00
2019-05-28T23:57:32.849Z,11.00
2019-05-28T23:59:59.382Z,11.00
